OPKC/KHI METAR and TAF weather

Enter ICAO airport designator
Station Type Date Time Source
OPKC METAR 2019/05/25 15:55 UTC NOAA

OPKC 251555Z 22010KT 6000 NSC 30/25 Q1004 NOSIG


Station Type Date Time Source
OPKC Decoded METAR 2019/05/25 15:55 UTC NOAA

Karachi Airport, Pakistan (OPKC) 24-54N 067-08E 22M
May 25, 2019 - 11:55 AM EDT / 2019.05.25 1555 UTC
Wind: from the SW (220 degrees) at 12 MPH (10 KT):0
Visibility: 3 mile(s):0
Temperature: 86 F (30 C)
Heat index: 96.8 F (36.0 C):1
Dew Point: 77 F (25 C)
Relative Humidity: 74%
Pressure (altimeter): 29.65 in. Hg (1004 hPa)
ob: OPKC 251555Z 22010KT 6000 NSC 30/25 Q1004 NOSIG
cycle: 16

Station Type Date Time Source
OPKC TAF 2019/05/25 18:36 UTC NOAA

TAF TAF OPKC 251530Z 2518/2624 27005G15KT 5000 HZ NSC
FM260600 27012G22KT 6000 NSC

Example: see airport list